Route Details

Aircraft Information
Group: Euro Hub to Hub
Types: MD11, B763, A30F, B738
Route Data
Distance: 210nm
Duration: 0h 45m
Origin METAR: LFPG 260130Z 14008KT CAVOK 17/11 Q1014 NOSIG
Dest. METAR: EDDK 260150Z AUTO 13003KT CAVOK 10/10 Q1017 NOSIG
Freight Data
(for May 26, 2024)
Load Factor:
100%
Manifested Cargo: 134,704lbs
Financial History
Total Freight: 535,191lbs
Average Load: 0lbs/flt
Fuel Used: 118,905lbs
Avg. Fuel Used: 0lbs/flt
Fuel Expense: $46,858
Avg. Fuel Expense: $0
Avg. Fuel Cost: $0/lbs
Total Gross Income: $1,185,954
Pilot Pay: $2,241
Total Expenses: $225,041
Total Revenue: $911,459
Average Revenue: $0

Capitol Logistics 590




LFPG
Charles de Gaulle
Paris, FR
EDDK
Cologne Bonn Airport
Cologne, DE